sensor_id;sensor_type;location;lat;lon;timestamp;P1;durP1;ratioP1;P2;durP2;ratioP2
19889;SDS011;10107;51.198;6.824;2024-01-30T00:06:23;12.95;;;8.45;;
19889;SDS011;10107;51.198;6.824;2024-01-30T00:10:26;15.57;;;8.52;;
19889;SDS011;10107;51.198;6.824;2024-01-30T00:14:30;13.75;;;9.63;;
19889;SDS011;10107;51.198;6.824;2024-01-30T00:18:32;12.35;;;8.65;;
19889;SDS011;10107;51.198;6.824;2024-01-30T00:22:34;12.13;;;8.88;;
19889;SDS011;10107;51.198;6.824;2024-01-30T00:26:36;14.13;;;10.05;;
19889;SDS011;10107;51.198;6.824;2024-01-30T00:30:39;13.40;;;8.93;;
19889;SDS011;10107;51.198;6.824;2024-01-30T00:34:41;13.93;;;9.43;;
19889;SDS011;10107;51.198;6.824;2024-01-30T00:38:43;15.18;;;9.27;;
19889;SDS011;10107;51.198;6.824;2024-01-30T00:42:45;16.63;;;10.13;;
19889;SDS011;10107;51.198;6.824;2024-01-30T00:46:49;14.32;;;9.07;;
19889;SDS011;10107;51.198;6.824;2024-01-30T00:50:51;13.65;;;9.25;;
19889;SDS011;10107;51.198;6.824;2024-01-30T00:54:53;15.43;;;9.70;;
19889;SDS011;10107;51.198;6.824;2024-01-30T00:58:55;16.88;;;9.32;;
19889;SDS011;10107;51.198;6.824;2024-01-30T01:02:58;15.50;;;9.85;;
19889;SDS011;10107;51.198;6.824;2024-01-30T01:11:04;13.27;;;8.60;;
19889;SDS011;10107;51.198;6.824;2024-01-30T01:15:07;16.52;;;9.20;;
19889;SDS011;10107;51.198;6.824;2024-01-30T01:19:11;14.32;;;8.68;;
19889;SDS011;10107;51.198;6.824;2024-01-30T01:23:14;16.15;;;9.85;;
19889;SDS011;10107;51.198;6.824;2024-01-30T01:27:16;14.88;;;9.50;;
19889;SDS011;10107;51.198;6.824;2024-01-30T01:31:18;14.32;;;10.00;;
19889;SDS011;10107;51.198;6.824;2024-01-30T01:35:26;13.32;;;9.20;;
19889;SDS011;10107;51.198;6.824;2024-01-30T01:39:28;16.05;;;10.23;;
19889;SDS011;10107;51.198;6.824;2024-01-30T01:43:31;17.55;;;9.90;;
19889;SDS011;10107;51.198;6.824;2024-01-30T01:47:33;13.00;;;9.35;;
19889;SDS011;10107;51.198;6.824;2024-01-30T01:51:36;15.25;;;9.45;;
19889;SDS011;10107;51.198;6.824;2024-01-30T01:55:41;15.38;;;10.43;;
19889;SDS011;10107;51.198;6.824;2024-01-30T01:59:44;14.88;;;9.38;;
19889;SDS011;10107;51.198;6.824;2024-01-30T02:03:46;14.55;;;8.75;;
19889;SDS011;10107;51.198;6.824;2024-01-30T02:07:50;13.23;;;9.77;;
19889;SDS011;10107;51.198;6.824;2024-01-30T02:11:52;15.15;;;9.93;;
19889;SDS011;10107;51.198;6.824;2024-01-30T02:15:56;14.45;;;9.10;;
19889;SDS011;10107;51.198;6.824;2024-01-30T02:19:58;13.88;;;9.27;;
19889;SDS011;10107;51.198;6.824;2024-01-30T02:24:01;15.90;;;10.52;;
19889;SDS011;10107;51.198;6.824;2024-01-30T02:28:05;15.23;;;9.45;;
19889;SDS011;10107;51.198;6.824;2024-01-30T02:32:07;15.77;;;9.98;;
19889;SDS011;10107;51.198;6.824;2024-01-30T02:36:09;14.00;;;9.27;;
19889;SDS011;10107;51.198;6.824;2024-01-30T02:40:13;11.85;;;8.20;;
19889;SDS011;10107;51.198;6.824;2024-01-30T02:44:15;15.63;;;9.68;;
19889;SDS011;10107;51.198;6.824;2024-01-30T02:48:17;16.00;;;9.25;;
19889;SDS011;10107;51.198;6.824;2024-01-30T02:52:19;14.40;;;9.18;;
19889;SDS011;10107;51.198;6.824;2024-01-30T02:56:23;13.60;;;9.48;;
19889;SDS011;10107;51.198;6.824;2024-01-30T03:00:25;11.90;;;8.60;;
19889;SDS011;10107;51.198;6.824;2024-01-30T03:04:27;14.57;;;9.20;;
19889;SDS011;10107;51.198;6.824;2024-01-30T03:08:30;14.70;;;9.63;;
19889;SDS011;10107;51.198;6.824;2024-01-30T03:12:33;13.88;;;8.70;;
19889;SDS011;10107;51.198;6.824;2024-01-30T03:16:35;13.68;;;9.00;;
19889;SDS011;10107;51.198;6.824;2024-01-30T03:20:37;15.48;;;9.95;;
19889;SDS011;10107;51.198;6.824;2024-01-30T03:24:39;14.93;;;9.55;;
19889;SDS011;10107;51.198;6.824;2024-01-30T03:28:42;13.10;;;8.65;;
19889;SDS011;10107;51.198;6.824;2024-01-30T03:32:44;13.63;;;8.52;;
19889;SDS011;10107;51.198;6.824;2024-01-30T03:36:46;16.30;;;8.70;;
19889;SDS011;10107;51.198;6.824;2024-01-30T03:40:49;12.63;;;8.40;;
19889;SDS011;10107;51.198;6.824;2024-01-30T03:44:52;12.25;;;8.23;;
19889;SDS011;10107;51.198;6.824;2024-01-30T03:48:55;14.38;;;8.73;;
19889;SDS011;10107;51.198;6.824;2024-01-30T03:52:57;15.52;;;8.98;;
19889;SDS011;10107;51.198;6.824;2024-01-30T03:56:59;14.73;;;8.80;;
19889;SDS011;10107;51.198;6.824;2024-01-30T04:01:02;13.65;;;8.85;;
19889;SDS011;10107;51.198;6.824;2024-01-30T04:05:05;13.13;;;9.10;;
19889;SDS011;10107;51.198;6.824;2024-01-30T04:09:07;14.75;;;8.73;;
19889;SDS011;10107;51.198;6.824;2024-01-30T04:13:09;13.45;;;8.55;;
19889;SDS011;10107;51.198;6.824;2024-01-30T04:17:13;14.25;;;8.25;;
19889;SDS011;10107;51.198;6.824;2024-01-30T04:21:15;14.05;;;8.35;;
19889;SDS011;10107;51.198;6.824;2024-01-30T04:25:17;15.60;;;8.55;;
19889;SDS011;10107;51.198;6.824;2024-01-30T04:29:19;11.77;;;7.75;;
19889;SDS011;10107;51.198;6.824;2024-01-30T04:37:25;13.90;;;8.35;;
19889;SDS011;10107;51.198;6.824;2024-01-30T04:41:27;14.32;;;9.10;;
19889;SDS011;10107;51.198;6.824;2024-01-30T04:45:31;12.93;;;8.52;;
19889;SDS011;10107;51.198;6.824;2024-01-30T04:49:35;17.35;;;9.18;;
19889;SDS011;10107;51.198;6.824;2024-01-30T04:53:37;14.95;;;9.13;;
19889;SDS011;10107;51.198;6.824;2024-01-30T04:57:39;15.45;;;9.00;;
19889;SDS011;10107;51.198;6.824;2024-01-30T05:01:42;12.25;;;8.60;;
19889;SDS011;10107;51.198;6.824;2024-01-30T05:05:45;14.68;;;8.98;;
19889;SDS011;10107;51.198;6.824;2024-01-30T05:09:47;14.20;;;8.52;;
19889;SDS011;10107;51.198;6.824;2024-01-30T05:13:49;13.60;;;8.88;;
19889;SDS011;10107;51.198;6.824;2024-01-30T05:17:51;16.25;;;9.35;;
19889;SDS011;10107;51.198;6.824;2024-01-30T05:21:54;15.50;;;8.70;;
19889;SDS011;10107;51.198;6.824;2024-01-30T05:25:56;19.58;;;9.68;;
19889;SDS011;10107;51.198;6.824;2024-01-30T05:30:01;13.05;;;9.13;;
19889;SDS011;10107;51.198;6.824;2024-01-30T05:34:03;15.25;;;9.10;;
19889;SDS011;10107;51.198;6.824;2024-01-30T05:38:06;16.92;;;9.48;;
19889;SDS011;10107;51.198;6.824;2024-01-30T05:42:08;14.27;;;9.48;;
19889;SDS011;10107;51.198;6.824;2024-01-30T05:46:11;10.82;;;8.00;;
19889;SDS011;10107;51.198;6.824;2024-01-30T05:50:13;16.00;;;9.25;;
19889;SDS011;10107;51.198;6.824;2024-01-30T05:54:17;12.52;;;8.73;;
19889;SDS011;10107;51.198;6.824;2024-01-30T05:58:19;14.70;;;9.40;;
19889;SDS011;10107;51.198;6.824;2024-01-30T06:02:21;17.45;;;9.38;;
19889;SDS011;10107;51.198;6.824;2024-01-30T06:06:23;16.30;;;9.90;;
19889;SDS011;10107;51.198;6.824;2024-01-30T06:10:26;15.98;;;9.43;;
19889;SDS011;10107;51.198;6.824;2024-01-30T06:14:28;15.07;;;9.80;;
19889;SDS011;10107;51.198;6.824;2024-01-30T06:18:31;14.60;;;9.32;;
19889;SDS011;10107;51.198;6.824;2024-01-30T06:22:33;14.88;;;9.88;;
19889;SDS011;10107;51.198;6.824;2024-01-30T06:26:36;13.23;;;9.45;;
19889;SDS011;10107;51.198;6.824;2024-01-30T06:34:40;13.85;;;9.32;;
19889;SDS011;10107;51.198;6.824;2024-01-30T06:38:44;14.43;;;9.18;;
19889;SDS011;10107;51.198;6.824;2024-01-30T06:42:47;14.07;;;8.35;;
19889;SDS011;10107;51.198;6.824;2024-01-30T06:46:49;14.98;;;8.93;;
19889;SDS011;10107;51.198;6.824;2024-01-30T06:50:52;15.25;;;8.55;;
19889;SDS011;10107;51.198;6.824;2024-01-30T06:54:54;11.73;;;8.73;;
19889;SDS011;10107;51.198;6.824;2024-01-30T06:58:58;14.27;;;8.55;;
19889;SDS011;10107;51.198;6.824;2024-01-30T07:03:00;14.68;;;8.98;;
19889;SDS011;10107;51.198;6.824;2024-01-30T07:07:01;12.82;;;8.13;;
19889;SDS011;10107;51.198;6.824;2024-01-30T07:15:09;10.52;;;7.68;;
19889;SDS011;10107;51.198;6.824;2024-01-30T07:19:11;12.80;;;8.35;;
19889;SDS011;10107;51.198;6.824;2024-01-30T07:23:13;14.13;;;9.07;;
19889;SDS011;10107;51.198;6.824;2024-01-30T07:27:16;13.27;;;8.98;;
19889;SDS011;10107;51.198;6.824;2024-01-30T07:31:20;14.63;;;9.80;;
19889;SDS011;10107;51.198;6.824;2024-01-30T07:35:23;15.65;;;9.57;;
19889;SDS011;10107;51.198;6.824;2024-01-30T07:39:25;13.70;;;8.48;;
19889;SDS011;10107;51.198;6.824;2024-01-30T07:43:27;12.68;;;8.43;;
19889;SDS011;10107;51.198;6.824;2024-01-30T07:47:31;15.88;;;8.63;;
19889;SDS011;10107;51.198;6.824;2024-01-30T07:51:33;14.75;;;8.82;;
19889;SDS011;10107;51.198;6.824;2024-01-30T07:55:35;16.02;;;8.73;;
19889;SDS011;10107;51.198;6.824;2024-01-30T07:59:37;12.15;;;8.43;;
19889;SDS011;10107;51.198;6.824;2024-01-30T08:03:41;14.20;;;8.80;;
19889;SDS011;10107;51.198;6.824;2024-01-30T08:07:43;12.02;;;7.93;;
19889;SDS011;10107;51.198;6.824;2024-01-30T08:11:46;14.40;;;9.07;;
19889;SDS011;10107;51.198;6.824;2024-01-30T08:15:48;11.63;;;7.97;;
19889;SDS011;10107;51.198;6.824;2024-01-30T08:19:51;14.90;;;9.23;;
19889;SDS011;10107;51.198;6.824;2024-01-30T08:23:53;11.93;;;7.95;;
19889;SDS011;10107;51.198;6.824;2024-01-30T08:27:55;13.10;;;8.00;;
19889;SDS011;10107;51.198;6.824;2024-01-30T08:31:58;14.35;;;7.97;;
19889;SDS011;10107;51.198;6.824;2024-01-30T08:36:03;14.43;;;9.23;;
19889;SDS011;10107;51.198;6.824;2024-01-30T08:40:06;15.45;;;8.88;;
19889;SDS011;10107;51.198;6.824;2024-01-30T08:44:09;13.10;;;8.43;;
19889;SDS011;10107;51.198;6.824;2024-01-30T08:48:11;16.00;;;9.00;;
19889;SDS011;10107;51.198;6.824;2024-01-30T08:52:15;20.55;;;8.85;;
19889;SDS011;10107;51.198;6.824;2024-01-30T08:56:18;13.48;;;9.02;;
19889;SDS011;10107;51.198;6.824;2024-01-30T09:00:20;15.40;;;8.60;;
19889;SDS011;10107;51.198;6.824;2024-01-30T09:04:22;12.77;;;8.30;;
19889;SDS011;10107;51.198;6.824;2024-01-30T09:08:25;12.13;;;8.43;;
19889;SDS011;10107;51.198;6.824;2024-01-30T09:12:27;15.85;;;8.63;;
19889;SDS011;10107;51.198;6.824;2024-01-30T09:16:29;13.38;;;8.13;;
19889;SDS011;10107;51.198;6.824;2024-01-30T09:20:32;15.85;;;8.90;;
19889;SDS011;10107;51.198;6.824;2024-01-30T09:24:35;11.20;;;7.38;;
19889;SDS011;10107;51.198;6.824;2024-01-30T09:28:37;12.88;;;8.23;;
19889;SDS011;10107;51.198;6.824;2024-01-30T09:32:39;12.18;;;7.97;;
19889;SDS011;10107;51.198;6.824;2024-01-30T09:36:44;16.20;;;8.43;;
19889;SDS011;10107;51.198;6.824;2024-01-30T09:40:53;11.98;;;7.43;;
19889;SDS011;10107;51.198;6.824;2024-01-30T09:44:57;14.50;;;8.10;;
19889;SDS011;10107;51.198;6.824;2024-01-30T09:49:00;12.10;;;7.75;;
19889;SDS011;10107;51.198;6.824;2024-01-30T09:53:04;12.15;;;7.80;;
19889;SDS011;10107;51.198;6.824;2024-01-30T09:57:08;11.18;;;8.18;;
19889;SDS011;10107;51.198;6.824;2024-01-30T10:01:10;10.57;;;7.80;;
19889;SDS011;10107;51.198;6.824;2024-01-30T10:05:14;10.98;;;7.65;;
19889;SDS011;10107;51.198;6.824;2024-01-30T10:09:20;13.48;;;8.43;;
19889;SDS011;10107;51.198;6.824;2024-01-30T10:13:24;11.00;;;7.65;;
19889;SDS011;10107;51.198;6.824;2024-01-30T10:21:29;13.93;;;8.30;;
19889;SDS011;10107;51.198;6.824;2024-01-30T10:25:32;15.73;;;8.82;;
19889;SDS011;10107;51.198;6.824;2024-01-30T10:29:36;12.75;;;8.23;;
19889;SDS011;10107;51.198;6.824;2024-01-30T10:33:39;13.93;;;8.57;;
19889;SDS011;10107;51.198;6.824;2024-01-30T10:37:42;12.13;;;8.73;;
19889;SDS011;10107;51.198;6.824;2024-01-30T10:41:45;11.27;;;8.60;;
19889;SDS011;10107;51.198;6.824;2024-01-30T10:45:51;13.52;;;8.35;;
19889;SDS011;10107;51.198;6.824;2024-01-30T10:49:55;12.75;;;8.50;;
19889;SDS011;10107;51.198;6.824;2024-01-30T10:53:58;12.02;;;8.38;;
19889;SDS011;10107;51.198;6.824;2024-01-30T10:58:01;14.73;;;8.63;;
19889;SDS011;10107;51.198;6.824;2024-01-30T11:02:05;13.90;;;8.70;;
19889;SDS011;10107;51.198;6.824;2024-01-30T11:06:10;13.18;;;7.97;;
19889;SDS011;10107;51.198;6.824;2024-01-30T11:10:14;11.48;;;8.13;;
19889;SDS011;10107;51.198;6.824;2024-01-30T11:14:16;14.23;;;8.40;;
19889;SDS011;10107;51.198;6.824;2024-01-30T11:18:25;13.82;;;8.93;;
19889;SDS011;10107;51.198;6.824;2024-01-30T11:22:30;13.27;;;8.10;;
19889;SDS011;10107;51.198;6.824;2024-01-30T11:26:32;14.07;;;7.82;;
19889;SDS011;10107;51.198;6.824;2024-01-30T11:30:34;14.98;;;9.30;;
19889;SDS011;10107;51.198;6.824;2024-01-30T11:34:37;13.27;;;8.75;;
19889;SDS011;10107;51.198;6.824;2024-01-30T11:38:42;13.10;;;8.45;;
19889;SDS011;10107;51.198;6.824;2024-01-30T11:42:45;14.70;;;8.32;;
19889;SDS011;10107;51.198;6.824;2024-01-30T11:46:50;14.00;;;9.07;;
19889;SDS011;10107;51.198;6.824;2024-01-30T11:50:56;13.63;;;8.85;;
19889;SDS011;10107;51.198;6.824;2024-01-30T11:59:01;15.63;;;8.73;;
19889;SDS011;10107;51.198;6.824;2024-01-30T12:03:03;13.27;;;8.35;;
19889;SDS011;10107;51.198;6.824;2024-01-30T12:07:08;18.52;;;9.50;;
19889;SDS011;10107;51.198;6.824;2024-01-30T12:11:11;11.63;;;7.85;;
19889;SDS011;10107;51.198;6.824;2024-01-30T12:15:14;15.33;;;8.50;;
19889;SDS011;10107;51.198;6.824;2024-01-30T12:19:24;12.23;;;8.20;;
19889;SDS011;10107;51.198;6.824;2024-01-30T12:23:30;12.13;;;7.15;;
19889;SDS011;10107;51.198;6.824;2024-01-30T12:27:33;16.75;;;8.57;;
19889;SDS011;10107;51.198;6.824;2024-01-30T12:31:36;15.20;;;7.90;;
19889;SDS011;10107;51.198;6.824;2024-01-30T12:35:38;14.32;;;8.05;;
19889;SDS011;10107;51.198;6.824;2024-01-30T12:39:42;10.88;;;6.57;;
19889;SDS011;10107;51.198;6.824;2024-01-30T12:43:44;14.45;;;7.38;;
19889;SDS011;10107;51.198;6.824;2024-01-30T12:47:48;12.85;;;6.95;;
19889;SDS011;10107;51.198;6.824;2024-01-30T12:51:50;10.80;;;6.40;;
19889;SDS011;10107;51.198;6.824;2024-01-30T12:55:53;11.93;;;6.20;;
19889;SDS011;10107;51.198;6.824;2024-01-30T12:59:55;11.18;;;7.00;;
19889;SDS011;10107;51.198;6.824;2024-01-30T13:03:57;13.07;;;6.75;;
19889;SDS011;10107;51.198;6.824;2024-01-30T13:07:59;11.63;;;6.05;;
19889;SDS011;10107;51.198;6.824;2024-01-30T13:12:03;10.32;;;6.50;;
19889;SDS011;10107;51.198;6.824;2024-01-30T13:16:05;9.60;;;6.00;;
19889;SDS011;10107;51.198;6.824;2024-01-30T13:20:08;9.73;;;6.47;;
19889;SDS011;10107;51.198;6.824;2024-01-30T13:24:10;12.23;;;6.83;;
19889;SDS011;10107;51.198;6.824;2024-01-30T13:28:14;10.02;;;6.47;;
19889;SDS011;10107;51.198;6.824;2024-01-30T13:32:16;11.80;;;6.60;;
19889;SDS011;10107;51.198;6.824;2024-01-30T13:36:18;11.02;;;7.15;;
19889;SDS011;10107;51.198;6.824;2024-01-30T13:40:19;8.38;;;6.05;;
19889;SDS011;10107;51.198;6.824;2024-01-30T13:44:24;9.45;;;5.30;;
19889;SDS011;10107;51.198;6.824;2024-01-30T13:48:26;10.88;;;7.28;;
19889;SDS011;10107;51.198;6.824;2024-01-30T13:52:28;13.07;;;7.38;;
19889;SDS011;10107;51.198;6.824;2024-01-30T13:56:30;16.05;;;7.65;;
19889;SDS011;10107;51.198;6.824;2024-01-30T14:00:33;12.75;;;7.10;;
19889;SDS011;10107;51.198;6.824;2024-01-30T14:04:35;11.93;;;6.88;;
19889;SDS011;10107;51.198;6.824;2024-01-30T14:08:39;13.32;;;7.70;;
19889;SDS011;10107;51.198;6.824;2024-01-30T14:12:41;14.20;;;7.35;;
19889;SDS011;10107;51.198;6.824;2024-01-30T14:16:45;11.20;;;7.37;;
19889;SDS011;10107;51.198;6.824;2024-01-30T14:20:48;10.40;;;6.82;;
19889;SDS011;10107;51.198;6.824;2024-01-30T14:24:49;13.70;;;7.95;;
19889;SDS011;10107;51.198;6.824;2024-01-30T14:28:52;14.70;;;7.50;;
19889;SDS011;10107;51.198;6.824;2024-01-30T14:32:57;13.23;;;8.00;;
19889;SDS011;10107;51.198;6.824;2024-01-30T14:36:59;10.30;;;7.00;;
19889;SDS011;10107;51.198;6.824;2024-01-30T14:41:01;12.32;;;7.65;;
19889;SDS011;10107;51.198;6.824;2024-01-30T14:45:05;13.38;;;8.05;;
19889;SDS011;10107;51.198;6.824;2024-01-30T14:53:11;11.95;;;7.55;;
19889;SDS011;10107;51.198;6.824;2024-01-30T14:57:13;13.07;;;7.40;;
19889;SDS011;10107;51.198;6.824;2024-01-30T15:01:15;11.73;;;7.68;;
19889;SDS011;10107;51.198;6.824;2024-01-30T15:05:20;16.23;;;9.40;;
19889;SDS011;10107;51.198;6.824;2024-01-30T15:09:22;11.05;;;7.85;;
19889;SDS011;10107;51.198;6.824;2024-01-30T15:13:24;10.77;;;6.97;;
19889;SDS011;10107;51.198;6.824;2024-01-30T15:17:26;11.15;;;7.55;;
19889;SDS011;10107;51.198;6.824;2024-01-30T15:21:29;14.50;;;6.82;;
19889;SDS011;10107;51.198;6.824;2024-01-30T15:25:31;11.38;;;5.95;;
19889;SDS011;10107;51.198;6.824;2024-01-30T15:29:33;10.32;;;5.55;;
19889;SDS011;10107;51.198;6.824;2024-01-30T15:33:35;7.40;;;4.68;;
19889;SDS011;10107;51.198;6.824;2024-01-30T15:37:39;7.32;;;4.95;;
19889;SDS011;10107;51.198;6.824;2024-01-30T15:41:40;10.18;;;4.35;;
19889;SDS011;10107;51.198;6.824;2024-01-30T15:45:42;7.15;;;3.78;;
19889;SDS011;10107;51.198;6.824;2024-01-30T15:49:44;6.78;;;3.88;;
19889;SDS011;10107;51.198;6.824;2024-01-30T15:53:48;6.55;;;3.90;;
19889;SDS011;10107;51.198;6.824;2024-01-30T15:57:50;5.85;;;3.80;;
19889;SDS011;10107;51.198;6.824;2024-01-30T16:01:52;7.70;;;3.67;;
19889;SDS011;10107;51.198;6.824;2024-01-30T16:05:53;7.35;;;3.45;;
19889;SDS011;10107;51.198;6.824;2024-01-30T16:09:57;6.55;;;3.33;;
19889;SDS011;10107;51.198;6.824;2024-01-30T16:13:59;6.03;;;3.22;;
19889;SDS011;10107;51.198;6.824;2024-01-30T16:18:01;6.03;;;2.97;;
19889;SDS011;10107;51.198;6.824;2024-01-30T16:22:03;5.13;;;2.10;;
19889;SDS011;10107;51.198;6.824;2024-01-30T16:26:06;2.50;;;1.75;;
19889;SDS011;10107;51.198;6.824;2024-01-30T16:30:09;3.75;;;2.22;;
19889;SDS011;10107;51.198;6.824;2024-01-30T16:34:11;3.85;;;2.30;;
19889;SDS011;10107;51.198;6.824;2024-01-30T16:38:14;4.65;;;2.08;;
19889;SDS011;10107;51.198;6.824;2024-01-30T16:42:17;2.70;;;1.80;;
19889;SDS011;10107;51.198;6.824;2024-01-30T16:50:22;2.30;;;1.40;;
19889;SDS011;10107;51.198;6.824;2024-01-30T16:54:24;2.40;;;1.33;;
19889;SDS011;10107;51.198;6.824;2024-01-30T16:58:27;1.50;;;1.40;;
19889;SDS011;10107;51.198;6.824;2024-01-30T17:02:29;2.00;;;1.20;;
19889;SDS011;10107;51.198;6.824;2024-01-30T17:06:31;4.07;;;2.00;;
19889;SDS011;10107;51.198;6.824;2024-01-30T17:10:33;6.13;;;3.05;;
19889;SDS011;10107;51.198;6.824;2024-01-30T17:14:37;4.35;;;3.30;;
19889;SDS011;10107;51.198;6.824;2024-01-30T17:18:41;4.03;;;2.58;;
19889;SDS011;10107;51.198;6.824;2024-01-30T17:22:43;2.05;;;1.50;;
19889;SDS011;10107;51.198;6.824;2024-01-30T17:26:44;2.45;;;1.42;;
19889;SDS011;10107;51.198;6.824;2024-01-30T17:30:48;2.72;;;1.58;;
19889;SDS011;10107;51.198;6.824;2024-01-30T17:34:51;2.78;;;1.42;;
19889;SDS011;10107;51.198;6.824;2024-01-30T17:38:54;2.00;;;1.63;;
19889;SDS011;10107;51.198;6.824;2024-01-30T17:42:57;2.33;;;1.50;;
19889;SDS011;10107;51.198;6.824;2024-01-30T17:47:01;2.00;;;1.42;;
19889;SDS011;10107;51.198;6.824;2024-01-30T17:51:04;3.50;;;1.40;;
19889;SDS011;10107;51.198;6.824;2024-01-30T17:55:07;3.47;;;1.42;;
19889;SDS011;10107;51.198;6.824;2024-01-30T17:59:10;4.38;;;1.88;;
19889;SDS011;10107;51.198;6.824;2024-01-30T18:03:15;12.18;;;2.80;;
19889;SDS011;10107;51.198;6.824;2024-01-30T18:07:17;5.70;;;3.00;;
19889;SDS011;10107;51.198;6.824;2024-01-30T18:11:20;6.85;;;3.75;;
19889;SDS011;10107;51.198;6.824;2024-01-30T18:15:23;4.57;;;2.95;;
19889;SDS011;10107;51.198;6.824;2024-01-30T18:19:27;7.68;;;3.58;;
19889;SDS011;10107;51.198;6.824;2024-01-30T18:23:30;7.43;;;4.30;;
19889;SDS011;10107;51.198;6.824;2024-01-30T18:27:32;7.03;;;3.80;;
19889;SDS011;10107;51.198;6.824;2024-01-30T18:31:35;9.15;;;5.55;;
19889;SDS011;10107;51.198;6.824;2024-01-30T18:35:46;5.80;;;4.40;;
19889;SDS011;10107;51.198;6.824;2024-01-30T18:39:49;3.78;;;2.80;;
19889;SDS011;10107;51.198;6.824;2024-01-30T18:43:53;4.75;;;3.08;;
19889;SDS011;10107;51.198;6.824;2024-01-30T18:47:57;3.50;;;2.33;;
19889;SDS011;10107;51.198;6.824;2024-01-30T18:52:03;3.45;;;2.38;;
19889;SDS011;10107;51.198;6.824;2024-01-30T18:56:06;4.38;;;2.22;;
19889;SDS011;10107;51.198;6.824;2024-01-30T19:00:08;3.90;;;2.63;;
19889;SDS011;10107;51.198;6.824;2024-01-30T19:04:11;5.13;;;3.10;;
19889;SDS011;10107;51.198;6.824;2024-01-30T19:08:15;5.40;;;2.90;;
19889;SDS011;10107;51.198;6.824;2024-01-30T19:12:19;3.58;;;2.42;;
19889;SDS011;10107;51.198;6.824;2024-01-30T19:16:21;4.20;;;2.30;;
19889;SDS011;10107;51.198;6.824;2024-01-30T19:20:23;3.55;;;2.40;;
19889;SDS011;10107;51.198;6.824;2024-01-30T19:24:27;3.38;;;2.50;;
19889;SDS011;10107;51.198;6.824;2024-01-30T19:28:29;3.80;;;2.30;;
19889;SDS011;10107;51.198;6.824;2024-01-30T19:32:31;3.63;;;2.47;;
19889;SDS011;10107;51.198;6.824;2024-01-30T19:36:33;3.97;;;2.50;;
19889;SDS011;10107;51.198;6.824;2024-01-30T19:40:37;7.00;;;3.00;;
19889;SDS011;10107;51.198;6.824;2024-01-30T19:44:39;4.60;;;2.53;;
19889;SDS011;10107;51.198;6.824;2024-01-30T19:48:42;2.97;;;1.90;;
19889;SDS011;10107;51.198;6.824;2024-01-30T19:52:44;3.53;;;2.30;;
19889;SDS011;10107;51.198;6.824;2024-01-30T19:56:48;4.67;;;2.70;;
19889;SDS011;10107;51.198;6.824;2024-01-30T20:00:50;5.53;;;2.50;;
19889;SDS011;10107;51.198;6.824;2024-01-30T20:04:52;5.18;;;2.70;;
19889;SDS011;10107;51.198;6.824;2024-01-30T20:08:54;4.90;;;2.70;;
19889;SDS011;10107;51.198;6.824;2024-01-30T20:12:58;3.38;;;2.45;;
19889;SDS011;10107;51.198;6.824;2024-01-30T20:17:00;4.78;;;3.10;;
19889;SDS011;10107;51.198;6.824;2024-01-30T20:21:02;4.97;;;2.90;;
19889;SDS011;10107;51.198;6.824;2024-01-30T20:25:04;5.45;;;3.05;;
19889;SDS011;10107;51.198;6.824;2024-01-30T20:29:09;4.15;;;3.08;;
19889;SDS011;10107;51.198;6.824;2024-01-30T20:33:10;5.10;;;3.38;;
19889;SDS011;10107;51.198;6.824;2024-01-30T20:37:14;4.13;;;2.90;;
19889;SDS011;10107;51.198;6.824;2024-01-30T20:41:16;5.40;;;3.10;;
19889;SDS011;10107;51.198;6.824;2024-01-30T20:45:20;4.38;;;3.20;;
19889;SDS011;10107;51.198;6.824;2024-01-30T20:49:23;4.45;;;3.00;;
19889;SDS011;10107;51.198;6.824;2024-01-30T20:53:25;4.90;;;3.30;;
19889;SDS011;10107;51.198;6.824;2024-01-30T20:57:27;4.70;;;3.28;;
19889;SDS011;10107;51.198;6.824;2024-01-30T21:01:30;5.85;;;3.50;;
19889;SDS011;10107;51.198;6.824;2024-01-30T21:05:32;5.78;;;3.58;;
19889;SDS011;10107;51.198;6.824;2024-01-30T21:09:35;4.90;;;3.35;;
19889;SDS011;10107;51.198;6.824;2024-01-30T21:13:36;6.75;;;3.60;;
19889;SDS011;10107;51.198;6.824;2024-01-30T21:17:40;5.68;;;3.30;;
19889;SDS011;10107;51.198;6.824;2024-01-30T21:21:42;4.65;;;3.28;;
19889;SDS011;10107;51.198;6.824;2024-01-30T21:25:44;6.82;;;3.38;;
19889;SDS011;10107;51.198;6.824;2024-01-30T21:29:46;6.70;;;3.85;;
19889;SDS011;10107;51.198;6.824;2024-01-30T21:33:49;8.77;;;5.18;;
19889;SDS011;10107;51.198;6.824;2024-01-30T21:37:51;10.10;;;6.40;;
19889;SDS011;10107;51.198;6.824;2024-01-30T21:41:53;10.57;;;6.22;;
19889;SDS011;10107;51.198;6.824;2024-01-30T21:45:55;9.77;;;6.35;;
19889;SDS011;10107;51.198;6.824;2024-01-30T21:49:58;10.32;;;6.85;;
19889;SDS011;10107;51.198;6.824;2024-01-30T21:54:00;12.15;;;7.80;;
19889;SDS011;10107;51.198;6.824;2024-01-30T21:58:01;19.88;;;11.88;;
19889;SDS011;10107;51.198;6.824;2024-01-30T22:02:04;13.57;;;9.10;;
19889;SDS011;10107;51.198;6.824;2024-01-30T22:06:09;18.95;;;10.88;;
19889;SDS011;10107;51.198;6.824;2024-01-30T22:10:11;23.17;;;11.98;;
19889;SDS011;10107;51.198;6.824;2024-01-30T22:14:13;30.25;;;13.93;;
19889;SDS011;10107;51.198;6.824;2024-01-30T22:18:15;21.80;;;11.73;;
19889;SDS011;10107;51.198;6.824;2024-01-30T22:22:19;26.58;;;14.60;;
19889;SDS011;10107;51.198;6.824;2024-01-30T22:26:22;28.50;;;15.38;;
19889;SDS011;10107;51.198;6.824;2024-01-30T22:30:24;31.70;;;17.45;;
19889;SDS011;10107;51.198;6.824;2024-01-30T22:34:26;26.45;;;14.60;;
19889;SDS011;10107;51.198;6.824;2024-01-30T22:38:30;21.08;;;12.20;;
19889;SDS011;10107;51.198;6.824;2024-01-30T22:42:32;14.15;;;8.40;;
19889;SDS011;10107;51.198;6.824;2024-01-30T22:46:34;12.85;;;8.27;;
19889;SDS011;10107;51.198;6.824;2024-01-30T22:50:36;10.85;;;7.20;;
19889;SDS011;10107;51.198;6.824;2024-01-30T22:54:39;10.48;;;7.28;;
19889;SDS011;10107;51.198;6.824;2024-01-30T22:58:41;11.48;;;7.22;;
19889;SDS011;10107;51.198;6.824;2024-01-30T23:02:44;15.45;;;9.35;;
19889;SDS011;10107;51.198;6.824;2024-01-30T23:06:46;13.63;;;8.10;;
19889;SDS011;10107;51.198;6.824;2024-01-30T23:10:49;13.73;;;8.70;;
19889;SDS011;10107;51.198;6.824;2024-01-30T23:14:51;17.45;;;9.32;;
19889;SDS011;10107;51.198;6.824;2024-01-30T23:18:55;14.05;;;8.93;;
19889;SDS011;10107;51.198;6.824;2024-01-30T23:22:56;13.85;;;8.32;;
19889;SDS011;10107;51.198;6.824;2024-01-30T23:27:00;13.50;;;7.63;;
19889;SDS011;10107;51.198;6.824;2024-01-30T23:31:01;13.60;;;7.80;;
19889;SDS011;10107;51.198;6.824;2024-01-30T23:35:04;14.38;;;8.68;;
19889;SDS011;10107;51.198;6.824;2024-01-30T23:39:07;13.88;;;7.90;;
19889;SDS011;10107;51.198;6.824;2024-01-30T23:43:11;15.65;;;8.93;;
19889;SDS011;10107;51.198;6.824;2024-01-30T23:47:14;16.38;;;8.77;;
19889;SDS011;10107;51.198;6.824;2024-01-30T23:51:16;16.48;;;9.90;;
19889;SDS011;10107;51.198;6.824;2024-01-30T23:55:17;14.93;;;9.10;;
19889;SDS011;10107;51.198;6.824;2024-01-30T23:59:21;14.95;;;9.02;;
